createdAt,value
2022-12-22T00:02:37.516Z,99.66
2022-12-22T00:05:58.389Z,100.00
2022-12-22T00:09:19.162Z,100.00
2022-12-22T00:12:40.172Z,100.00
2022-12-22T00:16:01.255Z,100.00
2022-12-22T00:19:22.350Z,100.00
2022-12-22T00:22:44.733Z,100.00
2022-12-22T00:26:05.915Z,100.00
2022-12-22T00:29:27.424Z,100.00
2022-12-22T00:32:52.178Z,100.00
2022-12-22T00:36:13.085Z,100.00
2022-12-22T00:39:36.794Z,100.00
2022-12-22T00:42:57.603Z,99.98
2022-12-22T00:46:19.321Z,99.56
2022-12-22T00:49:41.053Z,100.00
2022-12-22T00:53:02.137Z,99.93
2022-12-22T00:56:23.637Z,99.45
2022-12-22T00:59:46.222Z,98.70
2022-12-22T01:03:07.335Z,97.82
2022-12-22T01:06:28.617Z,97.84
2022-12-22T01:09:49.569Z,97.60
2022-12-22T01:13:10.806Z,97.69
2022-12-22T01:16:32.138Z,97.20
2022-12-22T01:19:53.284Z,96.74
2022-12-22T01:23:14.209Z,95.99
2022-12-22T01:26:35.419Z,94.91
2022-12-22T01:29:58.941Z,95.62
2022-12-22T01:33:20.097Z,95.65
2022-12-22T01:36:41.209Z,97.18
2022-12-22T01:40:02.249Z,98.61
2022-12-22T01:43:49.832Z,99.09
2022-12-22T01:47:11.110Z,98.12
2022-12-22T01:50:36.343Z,98.59
2022-12-22T01:53:57.556Z,99.63
2022-12-22T01:57:18.708Z,100.00
2022-12-22T02:00:39.997Z,100.00
2022-12-22T02:04:04.456Z,100.00
2022-12-22T02:07:36.571Z,100.00
2022-12-22T02:11:05.205Z,100.00
2022-12-22T02:14:46.347Z,100.00
2022-12-22T02:18:27.334Z,100.00
2022-12-22T02:21:49.468Z,100.00
2022-12-22T02:25:12.428Z,100.00
2022-12-22T02:28:34.048Z,100.00
2022-12-22T02:32:00.158Z,100.00
2022-12-22T02:35:21.877Z,100.00
2022-12-22T02:38:43.454Z,100.00
2022-12-22T02:42:14.064Z,100.00
2022-12-22T02:45:38.672Z,100.00
2022-12-22T02:49:39.827Z,100.00
2022-12-22T02:53:01.414Z,100.00
2022-12-22T02:56:24.180Z,100.00
2022-12-22T02:59:46.009Z,100.00
2022-12-22T03:03:07.680Z,100.00
2022-12-22T03:06:29.331Z,100.00
2022-12-22T03:09:50.861Z,100.00
2022-12-22T03:13:11.862Z,100.00
2022-12-22T03:16:33.811Z,100.00
2022-12-22T03:19:54.858Z,100.00
2022-12-22T03:23:16.010Z,100.00
2022-12-22T03:26:19.384Z,99.83
2022-12-22T03:29:21.725Z,99.06
2022-12-22T03:32:24.077Z,97.62
2022-12-22T03:35:27.229Z,97.65
2022-12-22T03:38:29.868Z,97.02
2022-12-22T03:41:51.178Z,96.85
2022-12-22T03:45:12.496Z,96.62
2022-12-22T03:48:15.314Z,95.73
2022-12-22T03:51:17.662Z,95.89
2022-12-22T03:54:24.010Z,96.86
2022-12-22T03:57:26.343Z,96.21
2022-12-22T04:00:28.947Z,95.04
2022-12-22T04:03:31.554Z,95.32
2022-12-22T04:06:34.054Z,96.18
2022-12-22T04:09:36.528Z,96.05
2022-12-22T04:12:57.266Z,95.45
2022-12-22T04:15:59.731Z,97.04
2022-12-22T04:19:02.261Z,97.49
2022-12-22T04:22:04.585Z,96.33
2022-12-22T04:25:07.383Z,95.24
2022-12-22T04:28:09.886Z,95.05
2022-12-22T04:31:12.589Z,94.70
2022-12-22T04:34:15.068Z,94.32
2022-12-22T04:37:17.991Z,94.53
2022-12-22T04:40:20.415Z,93.92
2022-12-22T04:43:23.068Z,93.90
2022-12-22T04:46:25.550Z,94.36
2022-12-22T04:49:27.872Z,94.44
2022-12-22T04:52:30.432Z,94.00
2022-12-22T04:55:32.937Z,94.18
2022-12-22T04:58:35.328Z,93.88
2022-12-22T05:01:38.281Z,94.03
2022-12-22T05:04:40.757Z,94.30
2022-12-22T05:07:44.345Z,93.81
2022-12-22T05:10:46.778Z,93.91
2022-12-22T05:13:49.279Z,93.05
2022-12-22T05:16:51.737Z,93.76
2022-12-22T05:19:54.061Z,94.68
2022-12-22T05:22:56.589Z,96.10
2022-12-22T05:25:59.173Z,96.94
2022-12-22T05:29:01.562Z,98.18
2022-12-22T05:32:03.913Z,99.25
2022-12-22T05:35:06.943Z,100.00
2022-12-22T05:38:09.975Z,100.00
2022-12-22T05:41:12.453Z,100.00
2022-12-22T05:44:15.136Z,100.00
2022-12-22T05:47:17.738Z,100.00
2022-12-22T05:50:21.548Z,99.24
2022-12-22T05:53:33.575Z,99.38
2022-12-22T05:56:35.996Z,100.00
2022-12-22T05:59:38.425Z,100.00
2022-12-22T06:02:41.839Z,100.00
2022-12-22T06:05:44.349Z,99.91
2022-12-22T06:08:47.211Z,99.66
2022-12-22T06:11:49.531Z,99.68
2022-12-22T06:14:51.891Z,100.00
2022-12-22T06:17:54.579Z,100.00
2022-12-22T06:20:57.178Z,99.95
2022-12-22T06:23:59.996Z,99.93
2022-12-22T06:27:02.366Z,100.00
2022-12-22T06:30:05.320Z,100.00
2022-12-22T06:33:11.726Z,100.00
2022-12-22T06:36:14.470Z,100.00
2022-12-22T06:39:17.447Z,100.00
2022-12-22T06:42:39.267Z,100.00
2022-12-22T06:45:42.696Z,100.00
2022-12-22T06:48:45.141Z,100.00
2022-12-22T06:51:47.886Z,100.00
2022-12-22T06:54:50.584Z,99.80
2022-12-22T06:57:53.138Z,99.66
2022-12-22T07:00:56.373Z,99.38
2022-12-22T07:03:58.979Z,99.35
2022-12-22T07:07:01.730Z,99.49
2022-12-22T07:10:04.749Z,99.71
2022-12-22T07:13:19.667Z,98.93
2022-12-22T07:16:22.662Z,98.68
2022-12-22T07:19:25.195Z,97.51
2022-12-22T07:22:30.757Z,96.97
2022-12-22T07:25:33.764Z,96.03
2022-12-22T07:28:36.704Z,95.79
2022-12-22T07:31:39.199Z,96.67
2022-12-22T07:34:42.778Z,95.66
2022-12-22T07:37:45.132Z,95.06
2022-12-22T07:40:51.909Z,95.35
2022-12-22T07:43:55.760Z,96.15
2022-12-22T07:46:58.542Z,94.98
2022-12-22T07:50:19.842Z,94.53
2022-12-22T07:53:24.682Z,93.36
2022-12-22T07:56:27.306Z,93.34
2022-12-22T07:59:30.116Z,95.38
2022-12-22T08:02:38.918Z,95.03
2022-12-22T08:05:41.776Z,94.36
2022-12-22T08:08:44.310Z,92.83
2022-12-22T08:11:47.212Z,94.11
2022-12-22T08:14:49.689Z,94.77
2022-12-22T08:17:52.750Z,93.75
2022-12-22T08:20:55.468Z,92.81
2022-12-22T08:23:57.978Z,95.17
2022-12-22T08:27:02.469Z,97.20
2022-12-22T08:30:05.115Z,98.23
2022-12-22T08:33:07.589Z,98.30
2022-12-22T08:36:10.119Z,99.91
2022-12-22T08:39:12.850Z,100.00
2022-12-22T08:42:15.578Z,100.00
2022-12-22T08:45:18.066Z,100.00
2022-12-22T08:48:20.453Z,100.00
2022-12-22T08:51:22.720Z,100.00
2022-12-22T08:54:25.389Z,100.00
2022-12-22T08:57:27.893Z,100.00
2022-12-22T09:00:30.388Z,100.00
2022-12-22T09:03:32.920Z,100.00
2022-12-22T09:06:40.842Z,100.00
2022-12-22T09:09:43.907Z,100.00
2022-12-22T09:12:48.460Z,100.00
2022-12-22T09:15:51.123Z,100.00
2022-12-22T09:18:53.886Z,100.00
2022-12-22T09:21:56.571Z,100.00
2022-12-22T09:24:59.000Z,100.00
2022-12-22T09:28:01.905Z,100.00
2022-12-22T09:31:04.664Z,100.00
2022-12-22T09:34:12.004Z,100.00
2022-12-22T09:37:19.664Z,100.00
2022-12-22T09:40:22.459Z,100.00
2022-12-22T09:43:29.929Z,100.00
2022-12-22T09:46:33.317Z,100.00
2022-12-22T09:49:36.543Z,100.00
2022-12-22T09:52:49.209Z,100.00
2022-12-22T09:55:51.872Z,100.00
2022-12-22T09:58:55.262Z,100.00
2022-12-22T10:02:00.838Z,100.00
2022-12-22T10:05:33.250Z,100.00
2022-12-22T10:08:36.715Z,100.00
2022-12-22T10:11:39.208Z,100.00
2022-12-22T10:14:43.176Z,99.81
2022-12-22T10:17:45.613Z,98.43
2022-12-22T10:21:06.921Z,99.23
2022-12-22T10:24:25.988Z,97.89
2022-12-22T10:27:30.242Z,97.18
2022-12-22T10:30:33.935Z,96.09
2022-12-22T10:33:41.199Z,97.04
2022-12-22T10:36:48.641Z,98.13
2022-12-22T10:39:51.362Z,97.92
2022-12-22T10:42:54.836Z,97.22
2022-12-22T10:45:57.496Z,96.75
2022-12-22T10:49:10.192Z,95.44
2022-12-22T10:52:29.590Z,95.63
2022-12-22T10:55:36.115Z,96.53
2022-12-22T10:59:01.842Z,96.53
2022-12-22T11:02:20.055Z,96.66
2022-12-22T11:05:23.192Z,97.48
2022-12-22T11:08:25.553Z,98.72
2022-12-22T11:11:40.219Z,99.09
2022-12-22T11:15:01.424Z,100.00
2022-12-22T11:18:06.900Z,100.00
2022-12-22T11:21:13.054Z,100.00
2022-12-22T11:24:24.651Z,100.00
2022-12-22T11:27:28.812Z,100.00
2022-12-22T11:30:35.979Z,100.00
2022-12-22T11:33:41.618Z,100.00
2022-12-22T11:37:06.031Z,100.00
2022-12-22T11:40:27.254Z,100.00
2022-12-22T11:43:56.048Z,100.00
2022-12-22T11:47:01.664Z,100.00
2022-12-22T11:50:57.704Z,100.00
2022-12-22T11:54:10.893Z,100.00
2022-12-22T11:57:17.521Z,100.00
2022-12-22T12:00:20.524Z,100.00
2022-12-22T12:03:35.669Z,100.00
2022-12-22T12:06:48.789Z,100.00
2022-12-22T12:09:59.280Z,100.00
2022-12-22T12:13:07.992Z,100.00
2022-12-22T12:16:10.449Z,100.00
2022-12-22T12:19:28.365Z,100.00
2022-12-22T12:22:42.694Z,100.00
2022-12-22T12:25:48.859Z,100.00
2022-12-22T12:29:12.335Z,100.00
2022-12-22T12:32:25.186Z,100.00
2022-12-22T12:35:28.186Z,100.00
2022-12-22T12:41:54.118Z,100.00
2022-12-22T12:44:56.716Z,100.00
2022-12-22T12:48:18.366Z,100.00
2022-12-22T12:51:39.492Z,100.00
2022-12-22T12:54:47.427Z,100.00
2022-12-22T12:57:50.103Z,100.00
2022-12-22T13:00:58.575Z,100.00
2022-12-22T13:04:04.336Z,100.00
2022-12-22T13:07:07.727Z,100.00
2022-12-22T13:10:20.734Z,100.00
2022-12-22T13:13:23.347Z,100.00
2022-12-22T13:16:27.576Z,100.00
2022-12-22T13:19:31.284Z,100.00
2022-12-22T13:22:33.715Z,100.00
2022-12-22T13:25:45.708Z,100.00
2022-12-22T13:28:50.607Z,100.00
2022-12-22T13:31:55.743Z,100.00
2022-12-22T13:35:33.697Z,100.00
2022-12-22T13:38:38.507Z,100.00
2022-12-22T13:41:41.832Z,100.00
2022-12-22T13:44:44.215Z,100.00
2022-12-22T13:47:47.428Z,100.00
2022-12-22T13:50:50.925Z,100.00
2022-12-22T13:54:12.877Z,100.00
2022-12-22T13:57:17.927Z,100.00
2022-12-22T14:00:25.026Z,100.00
2022-12-22T14:03:58.321Z,100.00
2022-12-22T14:06:50.348Z,100.00
2022-12-22T14:09:55.430Z,100.00
2022-12-22T14:12:57.955Z,100.00
2022-12-22T14:16:05.720Z,100.00
2022-12-22T14:19:08.248Z,100.00
2022-12-22T14:22:12.474Z,100.00
2022-12-22T14:25:19.964Z,100.00
2022-12-22T14:28:26.396Z,100.00
2022-12-22T14:31:29.358Z,100.00
2022-12-22T14:34:32.793Z,100.00
2022-12-22T14:37:35.659Z,100.00
2022-12-22T14:40:38.246Z,100.00
2022-12-22T14:43:41.012Z,100.00
2022-12-22T14:46:44.385Z,100.00
2022-12-22T14:49:54.828Z,100.00
2022-12-22T14:52:57.867Z,100.00
2022-12-22T14:56:00.547Z,100.00
2022-12-22T14:59:11.089Z,100.00
2022-12-22T15:02:26.670Z,100.00
2022-12-22T15:05:29.451Z,100.00
2022-12-22T15:08:39.236Z,100.00
2022-12-22T15:11:45.815Z,100.00
2022-12-22T15:14:49.457Z,100.00
2022-12-22T15:17:54.607Z,100.00
2022-12-22T15:20:57.475Z,100.00
2022-12-22T15:24:02.769Z,100.00
2022-12-22T15:27:05.384Z,100.00
2022-12-22T15:30:08.684Z,100.00
2022-12-22T15:33:14.721Z,100.00
2022-12-22T15:36:17.641Z,100.00
2022-12-22T15:39:20.569Z,100.00
2022-12-22T15:42:23.591Z,100.00
2022-12-22T15:45:29.194Z,100.00
2022-12-22T15:48:33.541Z,100.00
2022-12-22T15:51:36.208Z,100.00
2022-12-22T15:54:41.711Z,100.00
2022-12-22T15:57:44.849Z,100.00
2022-12-22T16:00:48.562Z,100.00
2022-12-22T16:03:51.583Z,100.00
2022-12-22T16:06:54.094Z,100.00
2022-12-22T16:10:03.347Z,100.00
2022-12-22T16:13:06.337Z,100.00
2022-12-22T16:16:09.031Z,100.00
2022-12-22T16:19:18.425Z,100.00
2022-12-22T16:22:22.113Z,100.00
2022-12-22T16:25:30.768Z,100.00
2022-12-22T16:28:34.228Z,100.00
2022-12-22T16:31:36.874Z,100.00
2022-12-22T16:34:39.625Z,100.00
2022-12-22T16:37:42.328Z,100.00
